Overview Statistics Trail Chart Weather Telemetry Raw packets
 

This is the latest recevied weather packets stored in our database for station/object N7ZEF. If no packets are shown the sender has not sent any weather packets the latest 10 day(s).

<< 39 40 41 42 43 44 45 >>
Time Temp. Humidity Pressure Rain* Wind** Luminosity Snow
1777572626 6.67° C 56% 1023.6 hPa 0 mm - - -
1777572025 6.11° C 57% 1023.7 hPa 0 mm - - -
1777571423 5.56° C 59% 1023.9 hPa 0 mm - - -
1777570822 5° C 60% 1023.9 hPa 0 mm - - -
1777570221 5° C 61% 1024 hPa 0 mm - - -
1777569619 4.44° C 63% 1024 hPa 0 mm - - -
1777569018 4.44° C 65% 1024.1 hPa 0 mm - - -
1777568417 4.44° C 67% 1024.3 hPa 0 mm - - -
1777567815 3.89° C 71% 1024.1 hPa 0 mm - - -
1777567214 3.33° C 76% 1024.3 hPa 0 mm - - -
1777566613 2.78° C 80% 1024.1 hPa 0 mm - - -
1777566011 2.78° C 86% 1024.1 hPa 0 mm - - -
1777565410 1.67° C 90% 1024.1 hPa 0 mm - - -
1777564808 1.67° C 91% 1024.1 hPa 0 mm - - -
1777564207 2.22° C 90% 1024.1 hPa 0 mm - - -
1777563606 2.78° C 86% 1024 hPa 0 mm - - -
1777563004 2.78° C 81% 1024 hPa 0 mm - - -
1777562403 2.78° C 81% 1023.9 hPa 0 mm - - -
1777561802 2.78° C 81% 1024 hPa 0 mm - - -
1777561200 2.78° C 82% 1023.9 hPa 0 mm - - -
1777560599 2.22° C 83% 1023.9 hPa 0 mm - - -
1777559997 2.22° C 84% 1024 hPa 0 mm - - -
1777559396 2.22° C 84% 1023.9 hPa 0 mm - - -
1777558795 2.22° C 85% 1023.9 hPa 0 mm - - -
1777558193 1.67° C 86% 1023.7 hPa 0 mm - - -

* Rain latest hour (hover to see other rain measurements)
** Current wind speed in m/s (hover to see current wind gust speed)